sensor_id;sensor_type;location;lat;lon;timestamp;temperature;humidity
16505;HTU21D;8365;51.030;4.696;2022-12-08T00:00:48;4.75;118.99
16505;HTU21D;8365;51.030;4.696;2022-12-08T00:03:19;4.71;118.99
16505;HTU21D;8365;51.030;4.696;2022-12-08T00:05:49;4.82;118.99
16505;HTU21D;8365;51.030;4.696;2022-12-08T00:08:41;4.89;118.99
16505;HTU21D;8365;51.030;4.696;2022-12-08T00:11:30;4.78;118.99
16505;HTU21D;8365;51.030;4.696;2022-12-08T00:14:00;4.74;118.99
16505;HTU21D;8365;51.030;4.696;2022-12-08T00:16:31;4.64;118.99
16505;HTU21D;8365;51.030;4.696;2022-12-08T00:19:01;4.76;118.99
16505;HTU21D;8365;51.030;4.696;2022-12-08T00:21:32;4.76;118.99
16505;HTU21D;8365;51.030;4.696;2022-12-08T00:24:02;4.83;118.99
16505;HTU21D;8365;51.030;4.696;2022-12-08T00:26:33;5.02;118.99
16505;HTU21D;8365;51.030;4.696;2022-12-08T00:29:04;5.09;118.99
16505;HTU21D;8365;51.030;4.696;2022-12-08T00:31:35;5.07;118.99
16505;HTU21D;8365;51.030;4.696;2022-12-08T00:34:05;4.95;118.99
16505;HTU21D;8365;51.030;4.696;2022-12-08T00:36:36;5.01;118.99
16505;HTU21D;8365;51.030;4.696;2022-12-08T00:39:07;5.00;118.99
16505;HTU21D;8365;51.030;4.696;2022-12-08T00:41:37;5.15;118.99
16505;HTU21D;8365;51.030;4.696;2022-12-08T00:44:26;5.08;118.99
16505;HTU21D;8365;51.030;4.696;2022-12-08T00:46:59;5.00;118.99
16505;HTU21D;8365;51.030;4.696;2022-12-08T00:49:29;5.09;118.99
16505;HTU21D;8365;51.030;4.696;2022-12-08T00:52:00;5.13;118.99
16505;HTU21D;8365;51.030;4.696;2022-12-08T00:54:31;5.18;118.99
16505;HTU21D;8365;51.030;4.696;2022-12-08T00:57:01;5.16;118.99
16505;HTU21D;8365;51.030;4.696;2022-12-08T00:59:32;5.21;118.99
16505;HTU21D;8365;51.030;4.696;2022-12-08T01:02:02;5.18;118.99
16505;HTU21D;8365;51.030;4.696;2022-12-08T01:04:32;5.20;118.99
16505;HTU21D;8365;51.030;4.696;2022-12-08T01:07:03;5.25;118.99
16505;HTU21D;8365;51.030;4.696;2022-12-08T01:09:35;5.21;118.99
16505;HTU21D;8365;51.030;4.696;2022-12-08T01:12:06;5.17;118.99
16505;HTU21D;8365;51.030;4.696;2022-12-08T01:14:37;5.11;118.99
16505;HTU21D;8365;51.030;4.696;2022-12-08T01:17:10;5.20;118.99
16505;HTU21D;8365;51.030;4.696;2022-12-08T01:19:41;5.00;118.99
16505;HTU21D;8365;51.030;4.696;2022-12-08T01:22:11;5.08;118.99
16505;HTU21D;8365;51.030;4.696;2022-12-08T01:24:44;4.94;118.99
16505;HTU21D;8365;51.030;4.696;2022-12-08T01:27:15;5.05;118.99
16505;HTU21D;8365;51.030;4.696;2022-12-08T01:29:45;4.96;118.99
16505;HTU21D;8365;51.030;4.696;2022-12-08T01:32:16;5.03;118.99
16505;HTU21D;8365;51.030;4.696;2022-12-08T01:34:46;5.05;118.99
16505;HTU21D;8365;51.030;4.696;2022-12-08T01:37:16;4.94;118.99
16505;HTU21D;8365;51.030;4.696;2022-12-08T01:39:49;4.93;118.99
16505;HTU21D;8365;51.030;4.696;2022-12-08T01:42:21;4.83;118.99
16505;HTU21D;8365;51.030;4.696;2022-12-08T01:45:00;4.95;118.99
16505;HTU21D;8365;51.030;4.696;2022-12-08T01:47:39;4.88;118.99
16505;HTU21D;8365;51.030;4.696;2022-12-08T01:50:12;4.83;118.99
16505;HTU21D;8365;51.030;4.696;2022-12-08T01:52:50;4.86;118.99
16505;HTU21D;8365;51.030;4.696;2022-12-08T01:55:32;4.86;118.99
16505;HTU21D;8365;51.030;4.696;2022-12-08T01:58:12;4.90;118.99
16505;HTU21D;8365;51.030;4.696;2022-12-08T02:00:44;4.94;118.99
16505;HTU21D;8365;51.030;4.696;2022-12-08T02:03:26;4.94;118.99
16505;HTU21D;8365;51.030;4.696;2022-12-08T02:05:57;4.75;118.99
16505;HTU21D;8365;51.030;4.696;2022-12-08T02:08:28;4.80;118.99
16505;HTU21D;8365;51.030;4.696;2022-12-08T02:10:59;4.63;118.99
16505;HTU21D;8365;51.030;4.696;2022-12-08T02:13:32;4.66;118.99
16505;HTU21D;8365;51.030;4.696;2022-12-08T02:16:15;4.61;118.99
16505;HTU21D;8365;51.030;4.696;2022-12-08T02:19:06;4.62;118.99
16505;HTU21D;8365;51.030;4.696;2022-12-08T02:22:01;4.47;118.99
16505;HTU21D;8365;51.030;4.696;2022-12-08T02:24:48;4.34;118.99
16505;HTU21D;8365;51.030;4.696;2022-12-08T02:36:03;4.17;118.99
16505;HTU21D;8365;51.030;4.696;2022-12-08T02:41:53;4.23;118.99
16505;HTU21D;8365;51.030;4.696;2022-12-08T02:45:03;4.15;118.99
16505;HTU21D;8365;51.030;4.696;2022-12-08T02:47:39;4.06;118.99
16505;HTU21D;8365;51.030;4.696;2022-12-08T02:50:10;4.01;118.99
16505;HTU21D;8365;51.030;4.696;2022-12-08T02:52:46;4.02;118.99
16505;HTU21D;8365;51.030;4.696;2022-12-08T03:03:53;3.92;118.99
16505;HTU21D;8365;51.030;4.696;2022-12-08T03:06:31;3.74;118.99
16505;HTU21D;8365;51.030;4.696;2022-12-08T03:09:12;3.69;118.99
16505;HTU21D;8365;51.030;4.696;2022-12-08T03:14:33;3.65;118.99
16505;HTU21D;8365;51.030;4.696;2022-12-08T03:17:09;3.75;118.99
16505;HTU21D;8365;51.030;4.696;2022-12-08T03:19:41;3.75;118.99
16505;HTU21D;8365;51.030;4.696;2022-12-08T03:22:12;3.79;118.99
16505;HTU21D;8365;51.030;4.696;2022-12-08T03:24:44;3.93;118.99
16505;HTU21D;8365;51.030;4.696;2022-12-08T03:27:16;3.90;118.99
16505;HTU21D;8365;51.030;4.696;2022-12-08T03:29:51;3.87;118.99
16505;HTU21D;8365;51.030;4.696;2022-12-08T03:32:53;3.73;118.99
16505;HTU21D;8365;51.030;4.696;2022-12-08T03:35:28;3.68;118.99
16505;HTU21D;8365;51.030;4.696;2022-12-08T03:38:10;3.72;118.99
16505;HTU21D;8365;51.030;4.696;2022-12-08T03:40:42;3.69;118.99
16505;HTU21D;8365;51.030;4.696;2022-12-08T03:43:13;3.69;118.99
16505;HTU21D;8365;51.030;4.696;2022-12-08T03:45:43;3.64;118.99
16505;HTU21D;8365;51.030;4.696;2022-12-08T03:48:13;3.76;118.99
16505;HTU21D;8365;51.030;4.696;2022-12-08T03:50:44;3.78;118.99
16505;HTU21D;8365;51.030;4.696;2022-12-08T03:53:14;3.77;118.99
16505;HTU21D;8365;51.030;4.696;2022-12-08T03:55:45;3.75;118.99
16505;HTU21D;8365;51.030;4.696;2022-12-08T03:58:15;3.61;118.99
16505;HTU21D;8365;51.030;4.696;2022-12-08T04:00:45;3.73;118.99
16505;HTU21D;8365;51.030;4.696;2022-12-08T04:03:16;3.67;118.99
16505;HTU21D;8365;51.030;4.696;2022-12-08T04:05:46;3.73;118.99
16505;HTU21D;8365;51.030;4.696;2022-12-08T04:08:17;3.71;118.99
16505;HTU21D;8365;51.030;4.696;2022-12-08T04:10:47;3.80;118.99
16505;HTU21D;8365;51.030;4.696;2022-12-08T04:13:18;3.68;118.99
16505;HTU21D;8365;51.030;4.696;2022-12-08T04:15:48;3.70;118.99
16505;HTU21D;8365;51.030;4.696;2022-12-08T04:18:19;3.67;118.99
16505;HTU21D;8365;51.030;4.696;2022-12-08T04:20:49;3.73;118.99
16505;HTU21D;8365;51.030;4.696;2022-12-08T04:23:20;3.75;118.99
16505;HTU21D;8365;51.030;4.696;2022-12-08T04:25:51;3.83;118.99
16505;HTU21D;8365;51.030;4.696;2022-12-08T04:28:22;3.76;118.99
16505;HTU21D;8365;51.030;4.696;2022-12-08T04:30:52;3.88;118.99
16505;HTU21D;8365;51.030;4.696;2022-12-08T04:33:22;3.85;118.99
16505;HTU21D;8365;51.030;4.696;2022-12-08T04:35:53;3.87;118.99
16505;HTU21D;8365;51.030;4.696;2022-12-08T04:38:23;4.02;118.99
16505;HTU21D;8365;51.030;4.696;2022-12-08T04:40:54;3.97;118.99
16505;HTU21D;8365;51.030;4.696;2022-12-08T04:43:24;4.01;118.99
16505;HTU21D;8365;51.030;4.696;2022-12-08T04:45:55;4.01;118.99
16505;HTU21D;8365;51.030;4.696;2022-12-08T04:48:25;3.95;118.99
16505;HTU21D;8365;51.030;4.696;2022-12-08T04:50:56;3.95;118.99
16505;HTU21D;8365;51.030;4.696;2022-12-08T04:53:26;4.01;118.99
16505;HTU21D;8365;51.030;4.696;2022-12-08T04:55:56;4.09;118.99
16505;HTU21D;8365;51.030;4.696;2022-12-08T04:58:27;4.04;118.99
16505;HTU21D;8365;51.030;4.696;2022-12-08T05:00:57;4.06;118.99
16505;HTU21D;8365;51.030;4.696;2022-12-08T05:03:28;4.05;118.99
16505;HTU21D;8365;51.030;4.696;2022-12-08T05:05:59;4.03;118.99
16505;HTU21D;8365;51.030;4.696;2022-12-08T05:08:31;3.97;118.99
16505;HTU21D;8365;51.030;4.696;2022-12-08T05:11:06;3.94;118.99
16505;HTU21D;8365;51.030;4.696;2022-12-08T05:13:37;3.98;118.99
16505;HTU21D;8365;51.030;4.696;2022-12-08T05:16:13;3.95;118.99
16505;HTU21D;8365;51.030;4.696;2022-12-08T05:18:43;3.95;118.99
16505;HTU21D;8365;51.030;4.696;2022-12-08T05:21:14;3.84;118.99
16505;HTU21D;8365;51.030;4.696;2022-12-08T05:23:44;3.82;118.99
16505;HTU21D;8365;51.030;4.696;2022-12-08T05:26:15;3.78;118.99
16505;HTU21D;8365;51.030;4.696;2022-12-08T05:28:45;3.87;118.99
16505;HTU21D;8365;51.030;4.696;2022-12-08T05:31:16;3.94;118.99
16505;HTU21D;8365;51.030;4.696;2022-12-08T05:33:48;3.98;118.99
16505;HTU21D;8365;51.030;4.696;2022-12-08T05:36:19;3.91;118.99
16505;HTU21D;8365;51.030;4.696;2022-12-08T05:38:49;3.79;118.99
16505;HTU21D;8365;51.030;4.696;2022-12-08T05:41:20;3.77;118.99
16505;HTU21D;8365;51.030;4.696;2022-12-08T05:43:50;3.79;118.99
16505;HTU21D;8365;51.030;4.696;2022-12-08T05:46:21;3.73;118.99
16505;HTU21D;8365;51.030;4.696;2022-12-08T05:48:51;3.82;118.99
16505;HTU21D;8365;51.030;4.696;2022-12-08T05:51:23;3.86;118.99
16505;HTU21D;8365;51.030;4.696;2022-12-08T05:53:53;3.92;118.99
16505;HTU21D;8365;51.030;4.696;2022-12-08T05:56:24;3.97;118.99
16505;HTU21D;8365;51.030;4.696;2022-12-08T05:58:54;3.84;118.99
16505;HTU21D;8365;51.030;4.696;2022-12-08T06:01:27;3.97;118.99
16505;HTU21D;8365;51.030;4.696;2022-12-08T06:04:00;3.76;118.99
16505;HTU21D;8365;51.030;4.696;2022-12-08T06:06:32;3.80;118.99
16505;HTU21D;8365;51.030;4.696;2022-12-08T06:09:04;3.83;118.99
16505;HTU21D;8365;51.030;4.696;2022-12-08T06:11:35;3.83;118.99
16505;HTU21D;8365;51.030;4.696;2022-12-08T06:14:09;3.94;118.99
16505;HTU21D;8365;51.030;4.696;2022-12-08T06:16:41;3.76;118.99
16505;HTU21D;8365;51.030;4.696;2022-12-08T06:19:11;3.71;118.99
16505;HTU21D;8365;51.030;4.696;2022-12-08T06:21:42;3.65;118.99
16505;HTU21D;8365;51.030;4.696;2022-12-08T06:24:12;3.67;118.99
16505;HTU21D;8365;51.030;4.696;2022-12-08T06:26:42;3.56;118.99
16505;HTU21D;8365;51.030;4.696;2022-12-08T06:29:13;3.68;118.99
16505;HTU21D;8365;51.030;4.696;2022-12-08T06:31:44;3.64;118.99
16505;HTU21D;8365;51.030;4.696;2022-12-08T06:34:14;3.63;118.99
16505;HTU21D;8365;51.030;4.696;2022-12-08T06:36:45;3.69;118.99
16505;HTU21D;8365;51.030;4.696;2022-12-08T06:39:15;3.86;118.99
16505;HTU21D;8365;51.030;4.696;2022-12-08T06:41:48;3.80;118.99
16505;HTU21D;8365;51.030;4.696;2022-12-08T06:44:38;3.83;118.99
16505;HTU21D;8365;51.030;4.696;2022-12-08T06:47:08;3.77;118.99
16505;HTU21D;8365;51.030;4.696;2022-12-08T06:49:39;3.77;118.99
16505;HTU21D;8365;51.030;4.696;2022-12-08T06:52:09;3.74;118.99
16505;HTU21D;8365;51.030;4.696;2022-12-08T06:54:40;3.75;118.99
16505;HTU21D;8365;51.030;4.696;2022-12-08T06:57:10;3.82;118.99
16505;HTU21D;8365;51.030;4.696;2022-12-08T06:59:40;3.74;118.99
16505;HTU21D;8365;51.030;4.696;2022-12-08T07:02:11;3.75;118.99
16505;HTU21D;8365;51.030;4.696;2022-12-08T07:04:42;3.86;118.99
16505;HTU21D;8365;51.030;4.696;2022-12-08T07:07:12;3.82;118.99
16505;HTU21D;8365;51.030;4.696;2022-12-08T07:09:43;3.82;118.99
16505;HTU21D;8365;51.030;4.696;2022-12-08T07:12:13;3.91;118.99
16505;HTU21D;8365;51.030;4.696;2022-12-08T07:14:44;4.03;118.99
16505;HTU21D;8365;51.030;4.696;2022-12-08T07:17:17;4.00;118.99
16505;HTU21D;8365;51.030;4.696;2022-12-08T07:19:47;4.03;118.99
16505;HTU21D;8365;51.030;4.696;2022-12-08T07:22:17;3.93;118.99
16505;HTU21D;8365;51.030;4.696;2022-12-08T07:24:48;4.01;118.99
16505;HTU21D;8365;51.030;4.696;2022-12-08T07:27:18;4.06;118.99
16505;HTU21D;8365;51.030;4.696;2022-12-08T07:29:49;3.91;118.99
16505;HTU21D;8365;51.030;4.696;2022-12-08T07:32:19;3.98;118.99
16505;HTU21D;8365;51.030;4.696;2022-12-08T07:34:50;3.90;118.99
16505;HTU21D;8365;51.030;4.696;2022-12-08T07:37:20;3.93;118.99
16505;HTU21D;8365;51.030;4.696;2022-12-08T07:39:50;3.85;118.99
16505;HTU21D;8365;51.030;4.696;2022-12-08T07:42:21;3.78;118.99
16505;HTU21D;8365;51.030;4.696;2022-12-08T07:44:51;3.76;118.99
16505;HTU21D;8365;51.030;4.696;2022-12-08T07:47:22;3.85;118.99
16505;HTU21D;8365;51.030;4.696;2022-12-08T07:49:54;3.92;118.99
16505;HTU21D;8365;51.030;4.696;2022-12-08T07:52:25;4.00;118.99
16505;HTU21D;8365;51.030;4.696;2022-12-08T07:54:55;3.93;118.99
16505;HTU21D;8365;51.030;4.696;2022-12-08T07:57:26;3.80;118.99
16505;HTU21D;8365;51.030;4.696;2022-12-08T07:59:56;3.84;118.99
16505;HTU21D;8365;51.030;4.696;2022-12-08T08:02:26;3.79;118.99
16505;HTU21D;8365;51.030;4.696;2022-12-08T08:04:59;3.89;118.99
16505;HTU21D;8365;51.030;4.696;2022-12-08T08:07:30;3.88;118.99
16505;HTU21D;8365;51.030;4.696;2022-12-08T08:10:00;3.90;118.99
16505;HTU21D;8365;51.030;4.696;2022-12-08T08:12:31;3.95;118.99
16505;HTU21D;8365;51.030;4.696;2022-12-08T08:15:04;3.95;118.99
16505;HTU21D;8365;51.030;4.696;2022-12-08T08:17:36;3.90;118.99
16505;HTU21D;8365;51.030;4.696;2022-12-08T08:20:07;3.93;118.99
16505;HTU21D;8365;51.030;4.696;2022-12-08T08:22:38;4.00;118.99
16505;HTU21D;8365;51.030;4.696;2022-12-08T08:25:08;4.05;118.99
16505;HTU21D;8365;51.030;4.696;2022-12-08T08:27:38;4.27;118.99
16505;HTU21D;8365;51.030;4.696;2022-12-08T08:30:13;4.19;118.99
16505;HTU21D;8365;51.030;4.696;2022-12-08T08:32:44;4.27;118.99
16505;HTU21D;8365;51.030;4.696;2022-12-08T08:35:14;4.12;118.99
16505;HTU21D;8365;51.030;4.696;2022-12-08T08:37:45;4.21;118.99
16505;HTU21D;8365;51.030;4.696;2022-12-08T08:40:16;4.24;118.99
16505;HTU21D;8365;51.030;4.696;2022-12-08T08:42:47;4.33;118.99
16505;HTU21D;8365;51.030;4.696;2022-12-08T08:45:17;4.43;118.99
16505;HTU21D;8365;51.030;4.696;2022-12-08T08:47:47;4.18;118.99
16505;HTU21D;8365;51.030;4.696;2022-12-08T08:50:18;4.34;118.99
16505;HTU21D;8365;51.030;4.696;2022-12-08T08:52:48;4.43;118.99
16505;HTU21D;8365;51.030;4.696;2022-12-08T08:55:21;4.46;118.99
16505;HTU21D;8365;51.030;4.696;2022-12-08T08:57:52;4.57;118.99
16505;HTU21D;8365;51.030;4.696;2022-12-08T09:00:22;4.47;118.99
16505;HTU21D;8365;51.030;4.696;2022-12-08T09:02:53;4.31;118.99
16505;HTU21D;8365;51.030;4.696;2022-12-08T09:05:23;4.17;118.99
16505;HTU21D;8365;51.030;4.696;2022-12-08T09:07:54;4.24;118.99
16505;HTU21D;8365;51.030;4.696;2022-12-08T09:10:24;4.32;118.99
16505;HTU21D;8365;51.030;4.696;2022-12-08T09:12:55;4.20;118.99
16505;HTU21D;8365;51.030;4.696;2022-12-08T09:15:25;4.31;118.99
16505;HTU21D;8365;51.030;4.696;2022-12-08T09:17:56;4.44;118.99
16505;HTU21D;8365;51.030;4.696;2022-12-08T09:20:26;4.56;118.99
16505;HTU21D;8365;51.030;4.696;2022-12-08T09:22:59;4.43;118.99
16505;HTU21D;8365;51.030;4.696;2022-12-08T09:25:31;4.36;118.99
16505;HTU21D;8365;51.030;4.696;2022-12-08T09:28:02;4.32;118.99
16505;HTU21D;8365;51.030;4.696;2022-12-08T09:30:32;4.46;118.99
16505;HTU21D;8365;51.030;4.696;2022-12-08T09:33:03;4.63;118.99
16505;HTU21D;8365;51.030;4.696;2022-12-08T09:35:33;4.64;118.99
16505;HTU21D;8365;51.030;4.696;2022-12-08T09:38:04;4.53;118.99
16505;HTU21D;8365;51.030;4.696;2022-12-08T09:40:46;4.67;118.99
16505;HTU21D;8365;51.030;4.696;2022-12-08T09:43:40;4.68;118.99
16505;HTU21D;8365;51.030;4.696;2022-12-08T09:46:15;4.80;118.99
16505;HTU21D;8365;51.030;4.696;2022-12-08T09:48:53;4.91;118.99
16505;HTU21D;8365;51.030;4.696;2022-12-08T09:51:37;4.77;118.99
16505;HTU21D;8365;51.030;4.696;2022-12-08T09:54:20;4.66;118.99
16505;HTU21D;8365;51.030;4.696;2022-12-08T09:56:54;4.66;118.99
16505;HTU21D;8365;51.030;4.696;2022-12-08T09:59:33;4.82;118.99
16505;HTU21D;8365;51.030;4.696;2022-12-08T10:02:18;5.01;118.99
16505;HTU21D;8365;51.030;4.696;2022-12-08T10:04:50;4.98;118.99
16505;HTU21D;8365;51.030;4.696;2022-12-08T10:07:28;5.27;118.99
16505;HTU21D;8365;51.030;4.696;2022-12-08T10:10:24;5.11;118.99
16505;HTU21D;8365;51.030;4.696;2022-12-08T10:18:44;4.90;118.99
16505;HTU21D;8365;51.030;4.696;2022-12-08T10:21:17;4.89;118.99
16505;HTU21D;8365;51.030;4.696;2022-12-08T10:23:56;4.83;118.99
16505;HTU21D;8365;51.030;4.696;2022-12-08T10:26:27;4.84;118.99
16505;HTU21D;8365;51.030;4.696;2022-12-08T10:29:01;4.90;118.99
16505;HTU21D;8365;51.030;4.696;2022-12-08T10:31:32;4.71;118.99
16505;HTU21D;8365;51.030;4.696;2022-12-08T10:34:18;4.68;118.99
16505;HTU21D;8365;51.030;4.696;2022-12-08T10:36:55;4.53;118.99
16505;HTU21D;8365;51.030;4.696;2022-12-08T10:39:36;4.63;118.99
16505;HTU21D;8365;51.030;4.696;2022-12-08T10:45:02;4.95;118.99
16505;HTU21D;8365;51.030;4.696;2022-12-08T10:47:39;4.94;118.99
16505;HTU21D;8365;51.030;4.696;2022-12-08T10:50:22;5.21;118.99
16505;HTU21D;8365;51.030;4.696;2022-12-08T10:52:59;5.02;118.99
16505;HTU21D;8365;51.030;4.696;2022-12-08T10:55:45;5.27;118.99
16505;HTU21D;8365;51.030;4.696;2022-12-08T10:58:27;5.41;118.99
16505;HTU21D;8365;51.030;4.696;2022-12-08T11:01:24;5.96;118.99
16505;HTU21D;8365;51.030;4.696;2022-12-08T11:04:03;6.46;116.02
16505;HTU21D;8365;51.030;4.696;2022-12-08T11:06:36;6.76;114.46
16505;HTU21D;8365;51.030;4.696;2022-12-08T11:11:53;6.79;113.75
16505;HTU21D;8365;51.030;4.696;2022-12-08T11:14:28;6.95;110.54
16505;HTU21D;8365;51.030;4.696;2022-12-08T11:17:06;6.45;112.25
16505;HTU21D;8365;51.030;4.696;2022-12-08T11:19:39;6.40;112.38
16505;HTU21D;8365;51.030;4.696;2022-12-08T11:22:28;6.53;113.22
16505;HTU21D;8365;51.030;4.696;2022-12-08T11:27:43;6.00;116.19
16505;HTU21D;8365;51.030;4.696;2022-12-08T11:33:25;6.11;115.63
16505;HTU21D;8365;51.030;4.696;2022-12-08T11:36:06;5.93;117.84
16505;HTU21D;8365;51.030;4.696;2022-12-08T11:38:45;5.96;115.95
16505;HTU21D;8365;51.030;4.696;2022-12-08T11:41:20;5.95;116.92
16505;HTU21D;8365;51.030;4.696;2022-12-08T11:46:51;5.62;118.40
16505;HTU21D;8365;51.030;4.696;2022-12-08T11:49:32;5.46;118.99
16505;HTU21D;8365;51.030;4.696;2022-12-08T11:54:49;5.48;118.01
16505;HTU21D;8365;51.030;4.696;2022-12-08T11:57:23;5.53;118.50
16505;HTU21D;8365;51.030;4.696;2022-12-08T11:59:57;5.46;118.56
16505;HTU21D;8365;51.030;4.696;2022-12-08T12:02:30;5.67;118.99
16505;HTU21D;8365;51.030;4.696;2022-12-08T12:18:41;5.72;118.75
16505;HTU21D;8365;51.030;4.696;2022-12-08T12:21:26;5.82;118.03
16505;HTU21D;8365;51.030;4.696;2022-12-08T12:24:06;5.83;117.47
16505;HTU21D;8365;51.030;4.696;2022-12-08T12:29:29;5.78;118.76
16505;HTU21D;8365;51.030;4.696;2022-12-08T12:32:06;5.85;118.73
16505;HTU21D;8365;51.030;4.696;2022-12-08T12:34:47;5.96;116.51
16505;HTU21D;8365;51.030;4.696;2022-12-08T12:37:21;5.83;116.55
16505;HTU21D;8365;51.030;4.696;2022-12-08T12:40:01;5.93;118.76
16505;HTU21D;8365;51.030;4.696;2022-12-08T12:42:40;6.00;116.61
16505;HTU21D;8365;51.030;4.696;2022-12-08T12:55:55;6.15;116.85
16505;HTU21D;8365;51.030;4.696;2022-12-08T13:06:53;6.12;115.55
16505;HTU21D;8365;51.030;4.696;2022-12-08T13:09:31;6.20;116.21
16505;HTU21D;8365;51.030;4.696;2022-12-08T13:12:10;6.28;116.70
16505;HTU21D;8365;51.030;4.696;2022-12-08T13:14:47;6.28;115.32
16505;HTU21D;8365;51.030;4.696;2022-12-08T13:17:29;6.20;115.05
16505;HTU21D;8365;51.030;4.696;2022-12-08T13:20:04;6.21;114.66
16505;HTU21D;8365;51.030;4.696;2022-12-08T13:30:49;5.93;115.50
16505;HTU21D;8365;51.030;4.696;2022-12-08T13:33:31;6.02;114.72
16505;HTU21D;8365;51.030;4.696;2022-12-08T13:36:30;6.12;114.92
16505;HTU21D;8365;51.030;4.696;2022-12-08T13:39:02;6.06;115.56
16505;HTU21D;8365;51.030;4.696;2022-12-08T13:41:38;6.01;114.83
16505;HTU21D;8365;51.030;4.696;2022-12-08T13:44:22;5.97;116.15
16505;HTU21D;8365;51.030;4.696;2022-12-08T13:46:56;5.95;116.88
16505;HTU21D;8365;51.030;4.696;2022-12-08T13:49:38;5.62;118.99
16505;HTU21D;8365;51.030;4.696;2022-12-08T13:52:18;5.48;118.99
16505;HTU21D;8365;51.030;4.696;2022-12-08T13:54:50;5.30;118.99
16505;HTU21D;8365;51.030;4.696;2022-12-08T13:57:35;5.16;118.99
16505;HTU21D;8365;51.030;4.696;2022-12-08T14:00:16;5.31;118.99
16505;HTU21D;8365;51.030;4.696;2022-12-08T14:02:49;4.96;118.99
16505;HTU21D;8365;51.030;4.696;2022-12-08T14:05:22;4.39;118.99
16505;HTU21D;8365;51.030;4.696;2022-12-08T14:07:55;4.53;118.99
16505;HTU21D;8365;51.030;4.696;2022-12-08T14:10:28;4.53;118.99
16505;HTU21D;8365;51.030;4.696;2022-12-08T14:13:03;4.44;118.99
16505;HTU21D;8365;51.030;4.696;2022-12-08T14:15:34;4.34;118.99
16505;HTU21D;8365;51.030;4.696;2022-12-08T14:18:18;4.44;118.99
16505;HTU21D;8365;51.030;4.696;2022-12-08T14:21:04;4.44;118.99
16505;HTU21D;8365;51.030;4.696;2022-12-08T14:23:35;4.46;118.99
16505;HTU21D;8365;51.030;4.696;2022-12-08T14:26:06;4.29;118.99
16505;HTU21D;8365;51.030;4.696;2022-12-08T14:28:38;4.28;118.99
16505;HTU21D;8365;51.030;4.696;2022-12-08T14:31:09;4.37;118.99
16505;HTU21D;8365;51.030;4.696;2022-12-08T14:33:43;4.49;118.99
16505;HTU21D;8365;51.030;4.696;2022-12-08T14:36:13;4.50;118.99
16505;HTU21D;8365;51.030;4.696;2022-12-08T14:38:45;4.65;118.99
16505;HTU21D;8365;51.030;4.696;2022-12-08T14:41:24;4.79;118.99
16505;HTU21D;8365;51.030;4.696;2022-12-08T14:43:59;4.86;118.99
16505;HTU21D;8365;51.030;4.696;2022-12-08T14:46:32;5.04;118.99
16505;HTU21D;8365;51.030;4.696;2022-12-08T14:49:03;5.05;118.99
16505;HTU21D;8365;51.030;4.696;2022-12-08T14:51:33;5.24;118.99
16505;HTU21D;8365;51.030;4.696;2022-12-08T14:54:11;5.37;118.99
16505;HTU21D;8365;51.030;4.696;2022-12-08T14:56:53;5.16;118.99
16505;HTU21D;8365;51.030;4.696;2022-12-08T14:59:27;5.12;118.99
16505;HTU21D;8365;51.030;4.696;2022-12-08T15:02:26;5.10;118.99
16505;HTU21D;8365;51.030;4.696;2022-12-08T15:05:14;4.89;118.99
16505;HTU21D;8365;51.030;4.696;2022-12-08T15:07:50;4.56;118.99
16505;HTU21D;8365;51.030;4.696;2022-12-08T15:10:27;4.53;118.99
16505;HTU21D;8365;51.030;4.696;2022-12-08T15:15:54;4.38;118.99
16505;HTU21D;8365;51.030;4.696;2022-12-08T15:18:39;4.57;118.99
16505;HTU21D;8365;51.030;4.696;2022-12-08T15:21:12;4.48;118.99
16505;HTU21D;8365;51.030;4.696;2022-12-08T15:23:46;4.56;118.99
16505;HTU21D;8365;51.030;4.696;2022-12-08T15:26:27;4.56;118.99
16505;HTU21D;8365;51.030;4.696;2022-12-08T15:29:27;4.47;118.99
16505;HTU21D;8365;51.030;4.696;2022-12-08T15:31:59;4.34;118.99
16505;HTU21D;8365;51.030;4.696;2022-12-08T15:34:32;4.33;118.99
16505;HTU21D;8365;51.030;4.696;2022-12-08T15:37:03;4.45;118.99
16505;HTU21D;8365;51.030;4.696;2022-12-08T15:39:37;4.33;118.99
16505;HTU21D;8365;51.030;4.696;2022-12-08T15:42:11;4.32;118.99
16505;HTU21D;8365;51.030;4.696;2022-12-08T15:44:42;4.30;118.99
16505;HTU21D;8365;51.030;4.696;2022-12-08T15:47:20;4.53;118.99
16505;HTU21D;8365;51.030;4.696;2022-12-08T15:49:52;4.32;118.99
16505;HTU21D;8365;51.030;4.696;2022-12-08T15:52:23;4.39;118.99
16505;HTU21D;8365;51.030;4.696;2022-12-08T15:54:54;4.46;118.99
16505;HTU21D;8365;51.030;4.696;2022-12-08T15:57:29;4.27;118.99
16505;HTU21D;8365;51.030;4.696;2022-12-08T16:00:01;4.38;118.99
16505;HTU21D;8365;51.030;4.696;2022-12-08T16:02:32;4.38;118.99
16505;HTU21D;8365;51.030;4.696;2022-12-08T16:05:02;4.39;118.99
16505;HTU21D;8365;51.030;4.696;2022-12-08T16:07:33;4.42;118.99
16505;HTU21D;8365;51.030;4.696;2022-12-08T16:10:13;4.63;118.99
16505;HTU21D;8365;51.030;4.696;2022-12-08T16:12:45;4.60;118.99
16505;HTU21D;8365;51.030;4.696;2022-12-08T16:15:36;4.68;118.99
16505;HTU21D;8365;51.030;4.696;2022-12-08T16:18:14;4.79;118.99
16505;HTU21D;8365;51.030;4.696;2022-12-08T16:20:44;4.80;118.99
16505;HTU21D;8365;51.030;4.696;2022-12-08T16:23:15;4.67;118.99
16505;HTU21D;8365;51.030;4.696;2022-12-08T16:25:45;4.46;118.99
16505;HTU21D;8365;51.030;4.696;2022-12-08T16:28:16;4.30;118.99
16505;HTU21D;8365;51.030;4.696;2022-12-08T16:30:46;4.17;118.99
16505;HTU21D;8365;51.030;4.696;2022-12-08T16:33:19;4.33;118.99
16505;HTU21D;8365;51.030;4.696;2022-12-08T16:35:50;4.30;118.99
16505;HTU21D;8365;51.030;4.696;2022-12-08T16:38:20;4.30;118.99
16505;HTU21D;8365;51.030;4.696;2022-12-08T16:40:51;4.35;118.99
16505;HTU21D;8365;51.030;4.696;2022-12-08T16:43:40;4.22;118.99
16505;HTU21D;8365;51.030;4.696;2022-12-08T16:46:20;4.15;118.99
16505;HTU21D;8365;51.030;4.696;2022-12-08T16:48:55;4.09;118.99
16505;HTU21D;8365;51.030;4.696;2022-12-08T16:51:28;4.20;118.99
16505;HTU21D;8365;51.030;4.696;2022-12-08T16:53:58;4.22;118.99
16505;HTU21D;8365;51.030;4.696;2022-12-08T16:56:29;4.09;118.99
16505;HTU21D;8365;51.030;4.696;2022-12-08T16:59:00;4.22;118.99
16505;HTU21D;8365;51.030;4.696;2022-12-08T17:01:31;4.18;118.99
16505;HTU21D;8365;51.030;4.696;2022-12-08T17:04:01;4.16;118.99
16505;HTU21D;8365;51.030;4.696;2022-12-08T17:06:32;4.26;118.99
16505;HTU21D;8365;51.030;4.696;2022-12-08T17:09:03;4.20;118.99
16505;HTU21D;8365;51.030;4.696;2022-12-08T17:11:33;4.42;118.99
16505;HTU21D;8365;51.030;4.696;2022-12-08T17:14:04;4.51;118.99
16505;HTU21D;8365;51.030;4.696;2022-12-08T17:16:34;4.56;118.99
16505;HTU21D;8365;51.030;4.696;2022-12-08T17:19:05;4.61;118.99
16505;HTU21D;8365;51.030;4.696;2022-12-08T17:21:35;4.58;118.99
16505;HTU21D;8365;51.030;4.696;2022-12-08T17:24:06;4.60;118.99
16505;HTU21D;8365;51.030;4.696;2022-12-08T17:26:36;4.53;118.99
16505;HTU21D;8365;51.030;4.696;2022-12-08T17:29:07;4.47;118.99
16505;HTU21D;8365;51.030;4.696;2022-12-08T17:31:37;4.44;118.99
16505;HTU21D;8365;51.030;4.696;2022-12-08T17:34:08;4.37;118.99
16505;HTU21D;8365;51.030;4.696;2022-12-08T17:36:40;4.04;118.99
16505;HTU21D;8365;51.030;4.696;2022-12-08T17:39:10;4.15;118.99
16505;HTU21D;8365;51.030;4.696;2022-12-08T17:41:42;3.93;118.99
16505;HTU21D;8365;51.030;4.696;2022-12-08T17:44:15;4.00;118.99